Time;durP1;ratioP1;P1;durP2;ratioP2;P2;SDS_P1;SDS_P2;PMS_P1;PMS_P2;Temp;Humidity;BMP_temperature;BMP_pressure;BME280_temperature;BME280_humidity;BME280_pressure;Samples;Min_cycle;Max_cycle;Signal;HPM_P1;HPM_P2
2023/07/19 00:00:16;;;;;;;;;3.25;3.25;;;;;22.67;41.25;100899.56;5033545;28;45205;-68
2023/07/19 00:02:41;;;;;;;;;5.50;1.25;;;;;22.61;41.08;100892.03;5040704;28;45411;-68
2023/07/19 00:05:10;;;;;;;;;1.50;1.00;;;;;22.60;41.28;100890.31;5039413;28;65622;-68
2023/07/19 00:07:35;;;;;;;;;1.75;1.75;;;;;22.54;41.07;100885.44;5033295;28;64382;-68
2023/07/19 00:10:01;;;;;;;;;2.50;1.25;;;;;22.53;41.32;100889.06;5017802;28;45348;-67
2023/07/19 00:12:26;;;;;;;;;3.50;0.50;;;;;22.50;41.86;100898.16;5040646;28;45394;-68
2023/07/19 00:14:51;;;;;;;;;5.00;2.75;;;;;22.45;41.86;100900.34;5018932;28;45669;-67
2023/07/19 00:17:17;;;;;;;;;4.00;2.25;;;;;22.41;41.91;100900.66;5038491;28;65386;-67
2023/07/19 00:19:42;;;;;;;;;1.25;1.25;;;;;22.34;41.39;100893.09;5033506;28;45239;-68
2023/07/19 00:22:08;;;;;;;;;2.00;1.25;;;;;22.34;41.34;100898.44;5033597;28;45274;-67
2023/07/19 00:24:34;;;;;;;;;3.25;0.25;;;;;22.31;41.79;100906.69;5031057;28;45403;-68
2023/07/19 00:26:59;;;;;;;;;4.00;0.50;;;;;22.30;41.91;100899.63;5019919;28;47018;-68
2023/07/19 00:29:25;;;;;;;;;2.75;1.25;;;;;22.21;42.02;100886.97;5037009;28;66179;-68
2023/07/19 00:31:50;;;;;;;;;5.25;2.00;;;;;22.23;41.61;100898.34;5033277;28;45231;-68
2023/07/19 00:34:15;;;;;;;;;3.75;1.25;;;;;22.23;42.03;100903.69;5032002;28;45229;-68
2023/07/19 00:36:41;;;;;;;;;7.25;0.25;;;;;22.19;42.13;100904.88;5034833;28;71475;-67
2023/07/19 00:39:06;;;;;;;;;2.00;2.00;;;;;22.13;41.86;100911.53;5021565;28;62940;-68
2023/07/19 00:41:31;;;;;;;;;2.50;0.75;;;;;22.10;41.94;100903.75;5034334;28;57584;-67
2023/07/19 00:43:57;;;;;;;;;2.50;2.50;;;;;22.07;42.06;100898.63;5022475;28;68602;-68
2023/07/19 00:46:23;;;;;;;;;2.75;2.00;;;;;22.05;41.78;100894.38;5032948;28;45372;-67
2023/07/19 00:48:48;;;;;;;;;2.00;2.00;;;;;22.00;42.34;100894.72;5050805;28;71991;-67
2023/07/19 00:51:14;;;;;;;;;2.00;2.00;;;;;22.00;42.23;100905.38;5038828;28;45855;-68
2023/07/19 00:53:39;;;;;;;;;1.75;1.50;;;;;21.98;42.57;100893.97;5037163;28;45387;-68
2023/07/19 00:56:07;;;;;;;;;1.75;1.25;;;;;21.97;42.52;100900.25;5050034;28;45851;-67
2023/07/19 00:58:33;;;;;;;;;2.00;2.00;;;;;21.96;42.99;100902.06;5031387;28;45658;-68
2023/07/19 01:00:58;;;;;;;;;1.50;1.50;;;;;21.93;42.53;100896.97;5016394;28;45401;-68
2023/07/19 01:03:24;;;;;;;;;1.50;1.50;;;;;21.96;42.21;100901.22;5036751;28;63571;-68
2023/07/19 01:05:49;;;;;;;;;2.00;2.00;;;;;21.94;42.57;100904.00;5039619;28;69125;-67
2023/07/19 01:08:15;;;;;;;;;4.00;2.00;;;;;21.87;42.21;100900.09;5015146;28;45229;-68
2023/07/19 01:10:41;;;;;;;;;1.25;1.25;;;;;21.89;42.60;100908.81;5037924;28;45271;-67
2023/07/19 01:13:08;;;;;;;;;3.00;1.75;;;;;21.82;42.66;100894.22;5034855;28;58975;-67
2023/07/19 01:15:33;;;;;;;;;3.75;3.25;;;;;21.82;42.21;100902.22;5035725;28;45564;-68
2023/07/19 01:17:59;;;;;;;;;6.50;5.25;;;;;21.82;42.70;100898.72;5033312;28;45445;-68
2023/07/19 01:20:25;;;;;;;;;3.50;2.00;;;;;21.79;42.83;100895.28;5035716;28;45339;-67
2023/07/19 01:22:50;;;;;;;;;2.75;2.00;;;;;21.81;42.42;100897.84;5036416;28;45423;-68
2023/07/19 01:25:16;;;;;;;;;4.00;3.00;;;;;21.81;42.51;100900.50;5038735;28;46446;-68
2023/07/19 01:27:41;;;;;;;;;4.25;2.00;;;;;21.78;42.43;100893.59;5018953;28;48165;-67
2023/07/19 01:30:07;;;;;;;;;7.25;2.25;;;;;21.80;42.21;100901.47;5033244;28;63931;-67
2023/07/19 01:32:32;;;;;;;;;0.75;0.75;;;;;21.79;42.72;100899.78;5036091;28;45487;-68
2023/07/19 01:34:58;;;;;;;;;1.25;1.25;;;;;21.77;42.58;100899.03;5038963;28;66336;-67
2023/07/19 01:37:23;;;;;;;;;4.25;2.25;;;;;21.77;42.53;100896.38;5039699;28;45270;-67
2023/07/19 01:39:49;;;;;;;;;2.75;2.00;;;;;21.76;42.88;100892.00;5039200;28;63010;-68
2023/07/19 01:42:14;;;;;;;;;3.75;2.00;;;;;21.77;42.78;100901.69;5032925;28;45270;-67
2023/07/19 01:44:40;;;;;;;;;0.00;0.00;;;;;21.76;42.65;100905.31;5033584;28;45269;-68
2023/07/19 01:47:05;;;;;;;;;4.00;1.25;;;;;21.71;42.60;100902.13;5033940;28;45419;-68
2023/07/19 01:49:30;;;;;;;;;1.75;1.00;;;;;21.71;42.67;100907.44;5041135;28;45368;-68
2023/07/19 01:51:56;;;;;;;;;2.00;1.25;;;;;21.68;42.84;100911.19;5033331;28;46444;-68
2023/07/19 01:54:21;;;;;;;;;2.50;2.00;;;;;21.62;43.06;100908.97;5032104;28;67543;-68
2023/07/19 01:56:46;;;;;;;;;3.75;2.00;;;;;21.61;42.96;100920.56;5035228;28;45403;-68
2023/07/19 01:59:12;;;;;;;;;2.25;1.00;;;;;21.58;42.98;100916.34;5045163;28;45217;-68
2023/07/19 02:01:37;;;;;;;;;1.50;1.25;;;;;21.54;43.25;100917.50;5036599;28;48701;-68
2023/07/19 02:04:03;;;;;;;;;3.50;2.50;;;;;21.52;43.15;100927.41;5035703;28;45468;-67
2023/07/19 02:06:29;;;;;;;;;2.00;1.00;;;;;21.52;43.25;100927.41;5037476;28;48803;-68
2023/07/19 02:08:54;;;;;;;;;4.25;2.25;;;;;21.50;43.34;100923.16;5030144;28;45364;-68
2023/07/19 02:11:19;;;;;;;;;3.00;1.00;;;;;21.46;43.44;100918.97;5035933;28;66117;-68
2023/07/19 02:13:45;;;;;;;;;3.00;2.00;;;;;21.39;43.06;100915.88;5031064;28;45467;-68
2023/07/19 02:16:11;;;;;;;;;4.50;1.00;;;;;21.42;43.23;100928.97;5035483;28;46526;-68
2023/07/19 02:18:36;;;;;;;;;9.00;3.00;;;;;21.43;43.47;100925.34;5032857;28;45387;-68
2023/07/19 02:21:02;;;;;;;;;3.00;2.75;;;;;21.42;43.57;100919.19;5039652;28;45423;-68
2023/07/19 02:23:28;;;;;;;;;5.50;2.50;;;;;21.43;43.88;100926.19;5032021;28;46177;-68
2023/07/19 02:25:53;;;;;;;;;1.00;1.00;;;;;21.41;43.56;100925.47;5040138;28;45238;-68
2023/07/19 02:28:19;;;;;;;;;4.00;2.25;;;;;21.39;43.51;100931.88;5036726;28;45431;-68
2023/07/19 02:30:45;;;;;;;;;1.00;1.00;;;;;21.36;43.83;100924.09;5019032;28;45270;-68
2023/07/19 02:33:14;;;;;;;;;3.00;3.00;;;;;21.35;43.78;100931.19;5034523;28;45485;-68
2023/07/19 02:35:40;;;;;;;;;1.75;1.75;;;;;21.30;43.80;100927.16;5022694;28;45384;-68
2023/07/19 02:38:05;;;;;;;;;1.00;1.00;;;;;21.26;43.95;100929.16;5025848;28;45345;-68
2023/07/19 02:40:31;;;;;;;;;3.00;3.00;;;;;21.24;44.07;100934.59;5038577;28;45265;-67
2023/07/19 02:42:56;;;;;;;;;4.00;2.75;;;;;21.20;44.08;100930.44;5021724;28;46946;-68
2023/07/19 02:45:23;;;;;;;;;2.75;1.75;;;;;21.18;44.11;100929.72;5026046;28;65854;-67
2023/07/19 02:47:49;;;;;;;;;3.75;1.75;;;;;21.15;43.81;100940.56;5035146;28;45462;-68
2023/07/19 02:50:18;;;;;;;;;2.00;2.00;;;;;21.12;44.07;100932.78;5039848;28;45268;-68
2023/07/19 02:52:44;;;;;;;;;3.00;2.25;;;;;21.07;44.72;100937.59;5035195;28;45321;-68
2023/07/19 02:55:09;;;;;;;;;4.25;2.00;;;;;21.00;44.54;100946.91;5018234;28;64858;-67
2023/07/19 02:57:34;;;;;;;;;1.75;1.75;;;;;20.94;44.93;100947.34;5022184;28;62815;-68
2023/07/19 03:00:00;;;;;;;;;0.00;0.00;;;;;20.85;46.10;100944.34;5034376;28;67946;-67
2023/07/19 03:02:25;;;;;;;;;3.25;2.00;;;;;20.82;45.67;100938.38;5026116;28;65134;-68
2023/07/19 03:04:50;;;;;;;;;2.00;2.00;;;;;20.80;45.73;100940.28;5017719;28;60430;-68
2023/07/19 03:07:16;;;;;;;;;2.00;2.00;;;;;20.79;45.97;100951.91;5029107;28;58378;-68
2023/07/19 03:09:41;;;;;;;;;2.75;1.75;;;;;20.76;45.95;100952.09;5020050;28;68516;-68
2023/07/19 03:12:07;;;;;;;;;2.00;2.00;;;;;20.69;46.05;100951.63;5034827;28;72558;-67
2023/07/19 03:14:32;;;;;;;;;2.00;2.00;;;;;20.62;46.66;100951.19;5021394;28;45972;-68
2023/07/19 03:16:57;;;;;;;;;2.00;1.75;;;;;20.59;46.79;100953.16;5032070;28;66438;-68
2023/07/19 03:19:23;;;;;;;;;2.00;2.00;;;;;20.50;46.71;100957.28;5032787;28;66041;-68
2023/07/19 03:21:48;;;;;;;;;2.50;2.00;;;;;20.46;46.91;100955.78;5036051;28;45191;-68
2023/07/19 03:24:13;;;;;;;;;1.25;1.00;;;;;20.44;46.79;100957.69;5016797;28;65017;-68
2023/07/19 03:26:39;;;;;;;;;3.75;2.00;;;;;20.35;47.10;100958.28;5036115;28;63076;-68
2023/07/19 03:29:05;;;;;;;;;6.00;2.00;;;;;20.31;47.61;100960.28;5027652;28;45221;-68
2023/07/19 03:31:30;;;;;;;;;3.00;3.00;;;;;20.29;47.54;100963.03;5036714;28;46216;-68
2023/07/19 03:33:55;;;;;;;;;3.75;2.00;;;;;20.25;47.77;100969.47;5032960;28;62134;-68
2023/07/19 03:36:21;;;;;;;;;3.75;1.50;;;;;20.24;48.06;100974.94;5012023;28;45346;-67
2023/07/19 03:38:46;;;;;;;;;4.00;1.50;;;;;20.22;47.35;100972.34;5020488;28;46984;-68
2023/07/19 03:41:11;;;;;;;;;6.00;3.00;;;;;20.18;47.75;100970.81;5029923;28;54647;-68
2023/07/19 03:43:37;;;;;;;;;4.75;2.00;;;;;20.17;47.76;100986.88;5029712;28;68020;-68
2023/07/19 03:46:04;;;;;;;;;3.00;2.25;;;;;20.09;48.17;100980.22;5054875;28;45324;-68
2023/07/19 03:48:29;;;;;;;;;2.00;2.00;;;;;20.03;47.48;100985.09;5029675;28;45475;-67
2023/07/19 03:50:58;;;;;;;;;1.75;1.00;;;;;20.01;47.58;100987.84;5043088;28;67839;-68
2023/07/19 03:53:24;;;;;;;;;2.50;1.00;;;;;19.94;47.81;100988.31;5009697;28;45250;-67
2023/07/19 03:55:55;;;;;;;;;2.75;1.50;;;;;19.93;47.24;100987.47;5031399;28;64434;-68
2023/07/19 03:58:24;;;;;;;;;1.00;1.00;;;;;19.85;47.27;100993.25;5013332;28;45310;-68
2023/07/19 04:00:52;;;;;;;;;6.25;4.00;;;;;19.84;47.56;101001.31;5047760;28;46077;-68
2023/07/19 04:03:18;;;;;;;;;3.00;2.50;;;;;19.81;47.23;101001.50;5034841;28;45447;-67
2023/07/19 04:05:44;;;;;;;;;1.25;0.00;;;;;19.72;46.93;101003.75;5034766;28;45532;-68
2023/07/19 04:08:09;;;;;;;;;1.00;1.00;;;;;19.66;46.60;101005.94;5034153;28;45441;-68
2023/07/19 04:10:34;;;;;;;;;3.00;1.00;;;;;19.64;46.95;101019.28;5038635;28;53921;-68
2023/07/19 04:13:00;;;;;;;;;1.00;0.25;;;;;19.58;47.12;101016.16;5010774;28;62148;-68
2023/07/19 04:15:25;;;;;;;;;1.75;1.00;;;;;19.52;47.08;101017.38;5035686;28;63935;-68
2023/07/19 04:17:50;;;;;;;;;2.00;1.25;;;;;19.49;46.65;101025.53;5022052;28;65207;-68
2023/07/19 04:20:16;;;;;;;;;1.25;1.25;;;;;19.43;46.91;101026.75;5027676;28;73212;-67
2023/07/19 04:22:41;;;;;;;;;2.00;2.00;;;;;19.34;46.98;101029.94;5032856;28;45375;-67
2023/07/19 04:25:08;;;;;;;;;1.25;1.00;;;;;19.26;47.51;101025.06;5033284;28;64545;-68
2023/07/19 04:27:33;;;;;;;;;2.50;2.00;;;;;19.21;47.56;101031.59;5027472;28;45255;-67
2023/07/19 04:29:58;;;;;;;;;2.25;1.00;;;;;19.12;47.70;101025.91;5031021;28;46150;-68
2023/07/19 04:32:25;;;;;;;;;1.75;0.75;;;;;19.11;47.70;101031.31;5030220;28;48111;-68
2023/07/19 04:34:53;;;;;;;;;2.25;2.00;;;;;19.10;47.42;101038.38;5037402;28;45300;-68
2023/07/19 04:37:18;;;;;;;;;0.00;0.00;;;;;19.08;47.81;101037.63;5012892;28;45502;-68
2023/07/19 04:39:43;;;;;;;;;1.50;0.75;;;;;19.05;47.60;101029.88;5022958;28;45529;-68
2023/07/19 04:42:09;;;;;;;;;1.75;1.00;;;;;19.05;47.52;101032.53;5035009;28;67765;-68
2023/07/19 04:44:34;;;;;;;;;1.00;0.00;;;;;19.06;47.60;101033.38;5034254;28;45698;-68
2023/07/19 04:46:59;;;;;;;;;1.00;1.00;;;;;19.03;47.74;101045.00;5035366;28;61582;-68
2023/07/19 04:49:25;;;;;;;;;3.00;0.75;;;;;18.98;47.95;101033.78;5030010;28;69786;-67
2023/07/19 04:51:51;;;;;;;;;1.00;1.00;;;;;19.00;48.08;101041.66;5036838;28;45261;-68
2023/07/19 04:54:16;;;;;;;;;0.00;0.00;;;;;19.00;48.36;101047.84;5038714;28;45332;-68
2023/07/19 04:56:42;;;;;;;;;1.75;1.00;;;;;18.97;48.10;101045.34;5037661;28;58665;-68
2023/07/19 04:59:07;;;;;;;;;2.00;1.00;;;;;18.94;47.85;101041.06;5023554;28;57755;-68
2023/07/19 05:01:32;;;;;;;;;2.00;1.00;;;;;18.94;48.09;101045.53;5036968;28;66115;-68
2023/07/19 05:03:58;;;;;;;;;5.00;0.75;;;;;18.91;47.80;101041.25;5049922;28;67394;-68
2023/07/19 05:06:23;;;;;;;;;3.00;0.75;;;;;18.87;47.88;101044.16;5039667;28;45229;-68
2023/07/19 05:08:48;;;;;;;;;1.00;0.00;;;;;18.81;48.02;101032.09;5036189;28;63774;-68
2023/07/19 05:11:14;;;;;;;;;1.25;1.00;;;;;18.78;48.04;101043.69;5035874;28;73224;-68
2023/07/19 05:13:39;;;;;;;;;1.00;0.00;;;;;18.74;48.17;101042.19;5034460;28;45287;-68
2023/07/19 05:16:04;;;;;;;;;1.00;1.00;;;;;18.72;48.21;101046.72;5038614;28;58664;-68
2023/07/19 05:18:30;;;;;;;;;3.50;1.00;;;;;18.68;48.68;101049.59;5026637;28;46239;-68
2023/07/19 05:20:55;;;;;;;;;0.00;0.00;;;;;18.67;48.69;101055.88;5038015;28;54419;-67
2023/07/19 05:23:21;;;;;;;;;4.00;0.75;;;;;18.67;48.60;101055.88;5028029;28;45292;-67
2023/07/19 05:25:47;;;;;;;;;0.00;0.00;;;;;18.67;48.60;101047.91;5040541;28;69251;-68
2023/07/19 05:28:12;;;;;;;;;0.75;0.75;;;;;18.65;48.61;101045.34;5035767;28;47413;-67
2023/07/19 05:30:38;;;;;;;;;3.00;1.00;;;;;18.71;48.51;101052.94;5039059;28;45386;-68
2023/07/19 05:33:03;;;;;;;;;1.00;0.75;;;;;18.74;48.88;101046.63;5018692;28;60331;-68
2023/07/19 05:35:31;;;;;;;;;2.50;1.00;;;;;18.84;48.81;101053.16;5040026;28;45442;-67
2023/07/19 05:37:56;;;;;;;;;1.00;1.00;;;;;18.94;48.55;101056.13;5036265;28;46465;-68
2023/07/19 05:40:21;;;;;;;;;1.00;1.00;;;;;19.03;48.22;101063.56;5033672;28;63223;-67
2023/07/19 05:42:47;;;;;;;;;2.50;1.00;;;;;19.08;48.44;101066.81;5027212;28;45902;-68
2023/07/19 05:45:12;;;;;;;;;1.50;1.50;;;;;19.10;48.59;101059.59;5041251;28;45363;-68
2023/07/19 05:47:38;;;;;;;;;3.00;2.75;;;;;19.10;48.27;101059.59;5034566;28;74515;-67
2023/07/19 05:50:03;;;;;;;;;4.00;1.00;;;;;19.13;48.63;101064.75;5037270;28;45205;-68
2023/07/19 05:52:29;;;;;;;;;3.50;2.00;;;;;19.18;48.59;101053.88;5031736;28;45250;-67
2023/07/19 05:54:54;;;;;;;;;1.00;1.00;;;;;19.22;48.94;101055.41;5030772;28;45515;-68
2023/07/19 05:57:20;;;;;;;;;2.25;1.00;;;;;19.30;48.55;101050.50;5037460;28;45368;-67
2023/07/19 05:59:46;;;;;;;;;0.50;0.25;;;;;19.40;48.04;101064.06;5027637;28;45640;-67
2023/07/19 06:02:11;;;;;;;;;2.00;2.00;;;;;19.46;47.98;101076.13;5024809;28;45222;-67
2023/07/19 06:04:36;;;;;;;;;2.00;0.75;;;;;19.49;47.93;101074.16;5034863;28;71608;-68
2023/07/19 06:07:02;;;;;;;;;2.00;2.00;;;;;19.55;47.54;101083.56;5025065;28;64391;-68
2023/07/19 06:09:27;;;;;;;;;0.50;0.00;;;;;19.57;48.10;101071.06;5033577;28;45319;-68
2023/07/19 06:11:56;;;;;;;;;2.50;1.00;;;;;19.63;47.93;101080.44;5036240;28;65744;-68
2023/07/19 06:14:25;;;;;;;;;3.25;2.00;;;;;19.68;48.14;101078.38;5034997;28;46299;-68
2023/07/19 06:16:50;;;;;;;;;2.50;1.00;;;;;19.82;47.80;101088.22;5028522;28;47106;-67
2023/07/19 06:19:18;;;;;;;;;1.25;1.00;;;;;19.86;48.62;101079.94;5027399;28;45310;-67
2023/07/19 06:21:43;;;;;;;;;0.75;0.75;;;;;19.86;48.76;101087.06;5020501;28;45444;-67
2023/07/19 06:24:09;;;;;;;;;3.00;1.50;;;;;19.88;48.53;101091.34;5033804;28;67466;-68
2023/07/19 06:26:34;;;;;;;;;1.75;1.00;;;;;19.89;49.41;101078.91;5037120;28;61092;-67
2023/07/19 06:28:59;;;;;;;;;2.50;1.00;;;;;19.94;49.27;101079.50;5027197;28;62064;-67
2023/07/19 06:31:25;;;;;;;;;1.00;1.00;;;;;20.08;48.71;101086.63;5035682;28;68963;-67
2023/07/19 06:33:50;;;;;;;;;1.00;1.00;;;;;20.16;49.46;101078.19;5036642;28;45376;-68
2023/07/19 06:36:15;;;;;;;;;0.25;0.00;;;;;20.26;49.63;101074.84;5037129;28;63674;-68
2023/07/19 06:38:41;;;;;;;;;3.25;1.00;;;;;20.37;49.61;101076.00;5027651;28;70762;-67
2023/07/19 06:41:06;;;;;;;;;1.50;1.00;;;;;20.47;48.58;101077.13;5035000;28;59539;-68
2023/07/19 06:43:31;;;;;;;;;0.25;0.00;;;;;20.52;49.13;101074.16;5028720;28;45312;-68
2023/07/19 06:45:57;;;;;;;;;0.50;0.50;;;;;20.56;49.13;101075.69;5035312;28;45491;-68
2023/07/19 06:48:23;;;;;;;;;1.00;1.00;;;;;20.59;48.76;101071.03;5014973;28;45420;-67
2023/07/19 06:50:49;;;;;;;;;0.00;0.00;;;;;20.65;49.39;101075.97;5031491;28;45265;-68
2023/07/19 06:53:15;;;;;;;;;1.00;1.00;;;;;20.70;49.36;101075.69;5035202;28;45583;-68
2023/07/19 06:55:41;;;;;;;;;0.75;0.25;;;;;20.76;49.82;101077.94;5055745;28;46098;-68
2023/07/19 06:58:07;;;;;;;;;1.00;1.00;;;;;20.85;49.05;101084.47;5012480;28;45307;-67
2023/07/19 07:00:33;;;;;;;;;1.00;1.00;;;;;20.91;49.75;101086.75;5038039;28;45428;-68
2023/07/19 07:02:58;;;;;;;;;1.00;1.00;;;;;20.96;49.46;101083.78;5034682;28;45419;-67
2023/07/19 07:05:24;;;;;;;;;0.25;0.25;;;;;21.03;49.17;101085.97;5036535;28;47039;-68
2023/07/19 07:07:49;;;;;;;;;1.75;1.00;;;;;21.10;48.96;101088.19;5032168;28;45419;-67
2023/07/19 07:10:14;;;;;;;;;0.00;0.00;;;;;21.08;48.78;101087.44;5038130;28;59703;-68
2023/07/19 07:12:42;;;;;;;;;2.00;1.00;;;;;21.02;49.84;101076.25;5028440;28;57132;-68
2023/07/19 07:15:07;;;;;;;;;1.00;1.00;;;;;21.02;49.10;101086.91;5034323;28;45546;-67
2023/07/19 07:17:33;;;;;;;;;1.00;0.00;;;;;21.05;49.16;101080.50;5017911;28;45373;-68
2023/07/19 07:19:58;;;;;;;;;1.25;0.25;;;;;21.08;49.63;101085.63;5029682;28;63858;-68
2023/07/19 07:22:23;;;;;;;;;0.00;0.00;;;;;21.12;49.67;101091.59;5031602;28;45343;-67
2023/07/19 07:24:49;;;;;;;;;1.00;1.00;;;;;21.15;49.43;101086.09;5032710;28;45549;-68
2023/07/19 07:27:14;;;;;;;;;1.00;0.75;;;;;21.17;49.65;101079.69;5034533;28;55355;-67
2023/07/19 07:29:41;;;;;;;;;2.25;1.00;;;;;21.30;49.56;101082.44;5028909;28;65120;-67
2023/07/19 07:32:10;;;;;;;;;1.75;0.25;;;;;21.38;49.41;101089.88;5037727;28;45340;-68
2023/07/19 07:34:36;;;;;;;;;2.00;1.00;;;;;21.43;49.44;101085.97;5029734;28;45399;-68
2023/07/19 07:37:01;;;;;;;;;2.00;1.00;;;;;21.50;49.54;101080.25;5036841;28;68725;-68
2023/07/19 07:39:26;;;;;;;;;3.25;1.00;;;;;21.53;49.22;101088.03;5019930;28;45464;-67
2023/07/19 07:41:52;;;;;;;;;0.50;0.00;;;;;21.57;48.62;101086.88;5031534;28;53061;-68
2023/07/19 07:44:17;;;;;;;;;1.00;1.00;;;;;21.61;48.79;101088.38;5029722;28;66981;-67
2023/07/19 07:46:42;;;;;;;;;1.25;1.00;;;;;21.61;48.46;101075.91;5049831;28;57007;-67
2023/07/19 07:49:08;;;;;;;;;0.75;0.75;;;;;21.66;48.59;101083.59;5034653;28;45248;-68
2023/07/19 07:51:33;;;;;;;;;3.00;0.50;;;;;21.74;48.87;101093.72;5021883;28;45435;-68
2023/07/19 07:53:58;;;;;;;;;1.00;1.00;;;;;21.78;47.95;101087.22;5025594;28;47170;-68
2023/07/19 07:56:24;;;;;;;;;0.25;0.25;;;;;21.94;47.62;101085.22;5035293;28;62686;-67
2023/07/19 07:58:49;;;;;;;;;1.00;1.00;;;;;22.12;47.67;101088.41;5031471;28;45411;-68
2023/07/19 08:01:14;;;;;;;;;2.75;1.00;;;;;22.27;47.04;101094.47;5037562;28;54222;-68
2023/07/19 08:03:40;;;;;;;;;0.75;0.75;;;;;22.32;46.31;101089.69;5035645;28;63884;-68
2023/07/19 08:06:06;;;;;;;;;1.00;0.00;;;;;22.35;45.89;101083.28;5038086;28;45265;-68
2023/07/19 08:08:32;;;;;;;;;1.00;1.00;;;;;22.44;45.40;101092.44;5024013;28;58701;-68
2023/07/19 08:10:57;;;;;;;;;2.75;1.00;;;;;22.51;45.48;101094.56;5041863;28;65658;-68
2023/07/19 08:13:23;;;;;;;;;1.00;0.75;;;;;22.52;45.24;101093.63;5030549;28;45507;-68
2023/07/19 08:15:48;;;;;;;;;0.00;0.00;;;;;22.48;45.23;101092.09;5039211;28;45430;-68
2023/07/19 08:18:14;;;;;;;;;0.25;0.25;;;;;22.45;44.80;101091.47;5029711;28;49462;-68
2023/07/19 08:20:40;;;;;;;;;2.75;2.00;;;;;22.47;45.34;101093.09;5038845;28;60745;-68
2023/07/19 08:23:05;;;;;;;;;1.00;1.00;;;;;22.58;44.85;101088.81;5031157;28;45386;-68
2023/07/19 08:25:30;;;;;;;;;1.00;1.00;;;;;22.64;44.35;101091.84;5054328;28;45915;-68
2023/07/19 08:27:56;;;;;;;;;1.00;1.00;;;;;22.74;45.10;101100.91;5037445;28;45496;-67
2023/07/19 08:30:23;;;;;;;;;1.00;0.25;;;;;22.75;44.63;101097.28;5039714;28;45309;-69
2023/07/19 08:32:48;;;;;;;;;1.00;1.00;;;;;22.74;44.86;101092.91;5023944;28;45571;-68
2023/07/19 08:35:14;;;;;;;;;1.50;1.00;;;;;22.80;44.83;101088.09;5040291;28;63324;-68
2023/07/19 08:37:44;;;;;;;;;4.00;1.50;;;;;22.87;44.10;101098.19;5037357;28;45383;-68
2023/07/19 08:40:14;;;;;;;;;1.00;1.00;;;;;22.92;44.88;101087.19;5037680;28;45495;-69
2023/07/19 08:42:40;;;;;;;;;0.00;0.00;;;;;22.99;44.07;101088.44;5033553;28;45472;-68
2023/07/19 08:45:07;;;;;;;;;2.25;1.00;;;;;22.91;44.45;101098.81;5038229;28;45305;-68
2023/07/19 08:47:32;;;;;;;;;3.00;1.00;;;;;22.85;44.01;101089.44;5037687;28;45330;-68
2023/07/19 08:49:59;;;;;;;;;2.25;0.25;;;;;22.92;44.22;101100.53;5029054;28;69953;-68
2023/07/19 08:52:27;;;;;;;;;2.75;1.50;;;;;22.93;44.03;101088.91;5017779;28;46208;-68
2023/07/19 08:54:52;;;;;;;;;0.75;0.25;;;;;22.87;44.01;101090.19;5037388;28;45374;-68
2023/07/19 08:57:17;;;;;;;;;3.25;0.25;;;;;22.95;43.68;101094.97;5029005;28;45734;-68
2023/07/19 08:59:43;;;;;;;;;2.25;2.00;;;;;23.02;43.97;101090.00;5049138;28;45582;-69
2023/07/19 09:02:08;;;;;;;;;0.25;0.25;;;;;23.08;43.54;101084.28;5036049;28;70251;-68
2023/07/19 09:04:35;;;;;;;;;2.25;0.75;;;;;23.11;43.09;101071.53;5039020;28;66797;-68
2023/07/19 09:07:04;;;;;;;;;1.00;1.00;;;;;23.15;43.00;101074.00;5036378;28;45385;-68
2023/07/19 09:09:29;;;;;;;;;0.75;0.75;;;;;23.09;42.93;101072.63;5034544;28;45502;-68
2023/07/19 09:11:55;;;;;;;;;0.00;0.00;;;;;23.06;42.26;101086.19;5019555;28;47237;-68
2023/07/19 09:14:33;;;;;;;;;1.75;1.75;;;;;22.94;41.87;101080.75;5037450;28;51192;-68
2023/07/19 09:16:59;;;;;;;;;4.25;0.25;;;;;22.88;42.43;101083.03;5035951;28;45485;-68
2023/07/19 09:19:24;;;;;;;;;2.00;0.25;;;;;22.92;41.83;101087.19;5035610;28;45502;-68
2023/07/19 09:21:50;;;;;;;;;2.00;1.00;;;;;23.05;41.87;101084.50;5037376;28;73623;-68
2023/07/19 09:24:15;;;;;;;;;2.50;1.50;;;;;23.13;41.33;101074.09;5029003;28;45198;-68
2023/07/19 09:26:47;;;;;;;;;1.25;0.25;;;;;23.21;41.84;101084.19;5038037;28;59270;-68
2023/07/19 09:29:12;;;;;;;;;3.50;2.00;;;;;23.18;41.92;101081.75;5031355;28;45301;-68
2023/07/19 09:31:55;;;;;;;;;1.00;1.00;;;;;23.01;41.58;101083.81;5035698;28;48231;-68
2023/07/19 09:34:46;;;;;;;;;0.25;0.25;;;;;22.99;42.07;101082.25;5038970;28;45672;-68
2023/07/19 09:37:12;;;;;;;;;2.50;2.00;;;;;22.96;41.59;101079.81;5034065;28;66800;-68
2023/07/19 09:39:38;;;;;;;;;4.75;1.25;;;;;23.05;41.76;101085.31;5022552;28;45308;-68
2023/07/19 09:42:04;;;;;;;;;2.00;1.25;;;;;23.12;41.35;101083.06;5033310;28;45523;-68
2023/07/19 09:44:33;;;;;;;;;4.00;1.75;;;;;23.15;41.35;101082.84;5038751;28;45382;-68
2023/07/19 09:47:00;;;;;;;;;1.00;1.00;;;;;23.16;41.30;101084.56;5036662;28;45216;-68
2023/07/19 09:49:25;;;;;;;;;2.25;0.75;;;;;23.13;41.15;101080.28;5034644;28;45257;-68
2023/07/19 09:51:51;;;;;;;;;3.25;1.25;;;;;23.20;41.04;101087.84;5022868;28;51981;-68
2023/07/19 09:54:17;;;;;;;;;0.75;0.50;;;;;23.28;41.16;101080.97;5036643;28;54399;-68
2023/07/19 09:56:43;;;;;;;;;2.00;1.75;;;;;23.41;40.76;101083.56;5037304;28;45211;-68
2023/07/19 09:59:13;;;;;;;;;0.75;0.75;;;;;23.54;40.83;101090.66;5024104;28;45447;-68
2023/07/19 10:01:41;;;;;;;;;3.00;2.25;;;;;23.61;40.41;101089.22;5036647;28;45347;-68
2023/07/19 10:04:26;;;;;;;;;1.25;0.25;;;;;23.73;40.75;101088.25;5034055;28;45443;-67
2023/07/19 10:07:21;;;;;;;;;1.00;0.50;;;;;23.77;40.47;101094.22;5019328;28;45426;-67
2023/07/19 10:09:52;;;;;;;;;0.75;0.75;;;;;23.74;40.48;101091.78;5048964;28;45240;-67
2023/07/19 10:12:17;;;;;;;;;1.00;1.00;;;;;23.68;40.17;101093.09;5032525;28;47283;-67
2023/07/19 10:15:02;;;;;;;;;7.00;2.33;;;;;23.70;40.47;101085.81;5028114;28;45394;-67
2023/07/19 10:17:32;;;;;;;;;5.25;1.25;;;;;23.74;39.72;101092.63;5038683;28;45294;-67
2023/07/19 10:20:03;;;;;;;;;0.25;0.25;;;;;23.74;39.98;101081.09;5052827;28;45287;-67
2023/07/19 10:22:51;;;;;;;;;2.75;1.25;;;;;23.77;39.51;101070.16;5032815;28;48204;-67
2023/07/19 10:25:22;;;;;;;;;5.25;0.50;;;;;23.89;39.45;101071.94;5035205;28;46142;-68
2023/07/19 10:27:56;;;;;;;;;1.75;0.50;;;;;24.11;38.89;101072.91;5022270;28;45482;-67
2023/07/19 10:30:22;;;;;;;;;0.75;0.25;;;;;24.22;39.23;101076.44;5038065;28;45377;-68
2023/07/19 10:32:50;;;;;;;;;4.00;2.00;;;;;24.36;38.26;101075.31;5035303;28;46253;-67
2023/07/19 10:35:31;;;;;;;;;3.75;2.25;;;;;24.55;38.82;101082.75;5035500;28;45230;-68
2023/07/19 10:37:57;;;;;;;;;5.00;1.25;;;;;24.73;37.95;101075.06;5035394;28;45503;-68
2023/07/19 10:40:22;;;;;;;;;5.50;2.50;;;;;24.89;37.69;101071.97;5024905;28;59170;-67
2023/07/19 10:42:48;;;;;;;;;2.25;1.25;;;;;25.08;37.77;101092.75;5032584;28;50733;-67
2023/07/19 10:45:14;;;;;;;;;1.75;1.25;;;;;25.10;37.64;101088.09;5043263;28;45244;-67
2023/07/19 10:47:40;;;;;;;;;1.50;1.25;;;;;25.14;37.25;101081.53;5033919;28;45616;-67
2023/07/19 10:50:07;;;;;;;;;2.75;1.25;;;;;25.26;36.94;101074.31;5028676;28;65440;-67
2023/07/19 10:52:32;;;;;;;;;2.50;2.00;;;;;25.39;36.99;101079.47;5032485;28;47055;-67
2023/07/19 10:54:57;;;;;;;;;0.75;0.75;;;;;25.55;36.78;101090.63;5034833;28;63470;-67
2023/07/19 10:57:23;;;;;;;;;2.75;2.00;;;;;25.62;36.65;101082.91;5023126;28;47390;-68
2023/07/19 10:59:51;;;;;;;;;1.25;0.75;;;;;25.61;36.82;101075.00;5016788;28;56501;-67
2023/07/19 11:02:18;;;;;;;;;2.50;2.25;;;;;25.68;36.78;101082.38;5014247;28;46709;-68
2023/07/19 11:04:45;;;;;;;;;3.25;0.25;;;;;25.81;36.72;101079.47;5018448;28;45389;-67
2023/07/19 11:07:11;;;;;;;;;4.00;2.75;;;;;25.92;36.33;101079.44;5009064;28;45357;-68
2023/07/19 11:09:42;;;;;;;;;2.75;2.25;;;;;25.87;36.00;101078.97;5033794;28;60926;-68
2023/07/19 11:12:10;;;;;;;;;7.50;5.50;;;;;25.72;35.68;101072.25;5034553;28;45475;-68
2023/07/19 11:14:41;;;;;;;;;1.50;1.50;;;;;25.57;35.92;101079.78;5013701;28;46025;-68
2023/07/19 11:17:07;;;;;;;;;6.50;2.75;;;;;25.53;35.92;101081.00;5028047;28;45360;-68
2023/07/19 11:19:40;;;;;;;;;3.50;1.25;;;;;25.45;36.36;101076.28;5029502;28;45392;-68